WetterOnline ( https://www.wetteronline.de )

Wetter aktuell Hamburg

Aktuelles Wetter: Hamburg/Fuhlsbüttel (15m)

6-stündlich | Neueste Meldungen
Ortszeit Temperatur Wetter
Sa, 24.10. 14:00 14.1° C wolkig
Sa, 24.10. 8:00 11.7° C bewölkt
Sa, 24.10. 2:00 12.3° C bedeckt
Fr, 23.10. 20:00 12.1° C wolkig
Fr, 23.10. 14:00 13.5° C wolkig
Fr, 23.10. 8:00 9.8° C bewölkt
Fr, 23.10. 2:00 10.4° C wolkenlos
Do, 22.10. 20:00 13.8° C bewölkt
Ortszeit Temperatur Wetter
Sa, 24.10. 14:20 15° C leicht bewölkt
Sa, 24.10. 14:10 14.8° C -
Sa, 24.10. 14:00 14.1° C wolkig
Sa, 24.10. 13:50 14.1° C -
Sa, 24.10. 13:40 14.2° C -
Sa, 24.10. 13:30 14.4° C -
Sa, 24.10. 13:00 14.2° C leicht bewölkt
Sa, 24.10. 12:30 13.7° C -
Sa, 24.10. 12:00 13.6° C leicht bewölkt
Sa, 24.10. 11:30 12.9° C -
Sa, 24.10. 11:00 12.8° C wolkig, nach Regen
Ortszeit Relative Feuchte Sichtweite
Sa, 24.10. 14:00 71% 45 km
Sa, 24.10. 8:00 91% 18 km
Sa, 24.10. 2:00 95% 5.0 km
Fr, 23.10. 20:00 91% 20 km
Fr, 23.10. 14:00 79% 25 km
Fr, 23.10. 8:00 97% 6 km
Fr, 23.10. 2:00 89% 40 km
Do, 22.10. 20:00 82% 30 km
Ortszeit Relative Feuchte Sichtweite
Sa, 24.10. 14:20 72% >10 km
Sa, 24.10. 14:10 69% -
Sa, 24.10. 14:00 71% 45 km
Sa, 24.10. 13:50 71% -
Sa, 24.10. 13:40 72% -
Sa, 24.10. 13:30 72% 55 km
Sa, 24.10. 13:00 65% 40 km
Sa, 24.10. 12:30 69% 35 km
Sa, 24.10. 12:00 71% 40 km
Sa, 24.10. 11:30 77% 40 km
Sa, 24.10. 11:00 84% 25 km
Ortszeit Niederschlagsmenge Niederschlagsart
Sa, 24.10. 14:00 0.1 l/m2 in 6 Std. Regen
Sa, 24.10. 8:00 0.1 l/m2 in 12 Std. Regen
Sa, 24.10. 2:00 0.1 l/m2 in 6 Std. Regen
Fr, 23.10. 20:00 0.0 l/m2 in 12 Std. -
Fr, 23.10. 14:00 0.0 l/m2 in 6 Std. -
Fr, 23.10. 8:00 0.0 l/m2 in 12 Std. -
Fr, 23.10. 2:00 0.0 l/m2 in 6 Std. -
Do, 22.10. 20:00 0.4 l/m2 in 12 Std. Schauer
Ortszeit Niederschlagsmenge Niederschlagsart
Sa, 24.10. 14:20 keine Meldung -
Sa, 24.10. 14:10 keine Meldung -
Sa, 24.10. 14:00 0.0 l/m2 in 1 Std. Regen
Sa, 24.10. 13:50 keine Meldung -
Sa, 24.10. 13:40 keine Meldung -
Sa, 24.10. 13:30 0.0 l/m2 in 1 Std. -
Sa, 24.10. 13:00 0.0 l/m2 in 1 Std. -
Sa, 24.10. 12:30 0.0 l/m2 in 1 Std. -
Sa, 24.10. 12:00 0.0 l/m2 in 1 Std. -
Sa, 24.10. 11:30 0.0 l/m2 in 1 Std. -
Sa, 24.10. 11:00 0.1 l/m2 in 1 Std. Regen
Ortszeit Stärke Spitze Richtung
km/h Bft. km/h Grad Sektor
Sa, 24.10. 14:00 26 4 46 220° SW
Sa, 24.10. 8:00 15 3 33 220° SW
Sa, 24.10. 2:00 14 3 25 230° SW
Fr, 23.10. 20:00 9 2 20 180° S
Fr, 23.10. 14:00 11 2 24 230° SW
Fr, 23.10. 8:00 11 2 29 220° SW
Fr, 23.10. 2:00 14 3 29 220° SW
Do, 22.10. 20:00 13 3 44 220° SW
Ortszeit Stärke Spitze Richtung
km/h Bft. km/h Grad Sektor
Sa, 24.10. 14:20 22 4 - 230° SW
Sa, 24.10. 14:10 25 4 - 220° SW
Sa, 24.10. 14:00 26 4 41 220° SW
Sa, 24.10. 13:50 26 4 - 220° SW
Sa, 24.10. 13:40 26 4 - 220° SW
Sa, 24.10. 13:30 22 4 41 230° SW
Sa, 24.10. 13:00 30 5 46 240° SW
Sa, 24.10. 12:30 22 4 43 230° SW
Sa, 24.10. 12:00 25 4 40 240° SW
Sa, 24.10. 11:30 22 4 40 240° SW
Sa, 24.10. 11:00 25 4 36 220° SW
Ortszeit Untergrenze Bedeckung Gattung
total tief tief mittel hoch
Sa, 24.10. 14:00 660 m 7/8 6/8 Cu - Ci
Sa, 24.10. 8:00 450 m 7/8 7/8 Sc - -
Sa, 24.10. 2:00 180 m 8/8 5/8 Sc As -
Fr, 23.10. 20:00 2400 m 7/8 7/8 - As -
Fr, 23.10. 14:00 480 m 7/8 1/8 Cu As -
Fr, 23.10. 8:00 120 m 7/8 7/8 St - -
Fr, 23.10. 2:00 - 0/8 0/8 - - -
Do, 22.10. 20:00 1500 m 7/8 7/8 Cb - -
Ortszeit Bedeckungsgrad in Achtel und Wolkenuntergrenze
Sa, 24.10. 14:20 3-4(690m)
Sa, 24.10. 14:10 -
Sa, 24.10. 14:00 2(660m) 5(1500m)
Sa, 24.10. 13:50 -
Sa, 24.10. 13:40 -
Sa, 24.10. 13:30 -
Sa, 24.10. 13:00 2(810m) 3(7500m)
Sa, 24.10. 12:30 -
Sa, 24.10. 12:00 2(600m) 3(7500m)
Sa, 24.10. 11:30 -
Sa, 24.10. 11:00 2(360m) 5(480m)
Ortszeit Luftdruck NN (hPa) Tendenz (hPa in 3 Std.)
Sa, 24.10. 14:00 1010 - 0,1
Sa, 24.10. 8:00 1009 + 0,7
Sa, 24.10. 2:00 1009 - 0,1
Fr, 23.10. 20:00 1009 - 0,2
Fr, 23.10. 14:00 1011 - 0,7
Fr, 23.10. 8:00 1010 + 0,1
Fr, 23.10. 2:00 1010 + 0,4
Do, 22.10. 20:00 1009 0,0
Ortszeit Luftdruck NN (hPa) Tendenz (hPa in 3 Std.)
Sa, 24.10. 14:20 1010 keine Meldung
Sa, 24.10. 14:10 1010 keine Meldung
Sa, 24.10. 14:00 1010 - 0,1
Sa, 24.10. 13:50 1010 keine Meldung
Sa, 24.10. 13:40 1010 keine Meldung
Sa, 24.10. 13:30 1011 + 0,3
Sa, 24.10. 13:00 1011 + 0,5
Sa, 24.10. 12:30 1010 + 0,6
Sa, 24.10. 12:00 1010 + 0,9
Sa, 24.10. 11:30 1010 + 1,0
Sa, 24.10. 11:00 1010 + 1,1
Ortszeit Schneehöhe (cm)
Sa, 24.10. 14:00 0
Sa, 24.10. 8:00 0
Sa, 24.10. 2:00 0
Fr, 23.10. 20:00 0
Fr, 23.10. 14:00 0
Fr, 23.10. 8:00 0
Fr, 23.10. 2:00 0
Do, 22.10. 20:00 0
Ortszeit Schneehöhe (cm)
Sa, 24.10. 14:20 -
Sa, 24.10. 14:10 -
Sa, 24.10. 14:00 0
Sa, 24.10. 13:50 -
Sa, 24.10. 13:40 -
Sa, 24.10. 13:30 -
Sa, 24.10. 13:00 -
Sa, 24.10. 12:30 -
Sa, 24.10. 12:00 -
Sa, 24.10. 11:30 -
Sa, 24.10. 11:00 -
Link zu dieser Seite / Seite empfehlen

Das Wetter in ...